createdAt,value
2019-02-02T00:00:16.412Z,84.50
2019-02-02T00:05:17.774Z,84.10
2019-02-02T00:10:19.114Z,84.00
2019-02-02T00:15:20.431Z,84.20
2019-02-02T00:20:21.740Z,84.30
2019-02-02T00:25:23.043Z,84.70
2019-02-02T00:30:24.390Z,83.40
2019-02-02T00:35:25.705Z,84.10
2019-02-02T00:40:27.011Z,83.80
2019-02-02T00:45:28.371Z,83.90
2019-02-02T00:50:29.680Z,82.90
2019-02-02T00:55:30.988Z,83.10
2019-02-02T01:00:32.314Z,82.90
2019-02-02T01:05:33.588Z,83.50
2019-02-02T01:10:40.004Z,83.60
2019-02-02T01:15:41.497Z,84.00
2019-02-02T01:20:42.849Z,84.40
2019-02-02T01:25:44.151Z,84.00
2019-02-02T01:30:45.541Z,82.70
2019-02-02T01:35:46.893Z,82.70
2019-02-02T01:40:48.199Z,83.50
2019-02-02T01:45:49.520Z,83.60
2019-02-02T01:50:50.811Z,83.20
2019-02-02T01:55:52.131Z,81.60
2019-02-02T02:00:53.451Z,82.00
2019-02-02T02:05:54.744Z,82.40
2019-02-02T02:10:58.189Z,81.40
2019-02-02T02:15:59.215Z,82.10
2019-02-02T02:21:00.538Z,82.20
2019-02-02T02:26:01.837Z,82.90
2019-02-02T02:31:03.188Z,82.30
2019-02-02T02:36:04.484Z,82.70
2019-02-02T02:41:05.804Z,82.90
2019-02-02T02:46:07.162Z,83.10
2019-02-02T02:51:08.438Z,82.70
2019-02-02T02:56:09.780Z,82.90
2019-02-02T03:01:11.099Z,83.50
2019-02-02T03:06:12.595Z,83.40
2019-02-02T03:11:13.892Z,83.20
2019-02-02T03:16:15.209Z,81.80
2019-02-02T03:21:16.651Z,80.70
2019-02-02T03:26:18.034Z,80.60
2019-02-02T03:31:19.359Z,80.60
2019-02-02T03:36:20.625Z,79.70
2019-02-02T03:41:22.102Z,80.40
2019-02-02T03:46:23.410Z,80.10
2019-02-02T03:51:24.711Z,79.30
2019-02-02T03:56:26.057Z,80.00
2019-02-02T04:01:29.953Z,77.40
2019-02-02T04:06:30.491Z,77.00
2019-02-02T04:11:31.781Z,76.50
2019-02-02T04:16:33.088Z,76.10
2019-02-02T04:21:34.472Z,76.60
2019-02-02T04:26:35.747Z,76.60
2019-02-02T04:31:37.056Z,76.80
2019-02-02T04:36:38.365Z,76.70
2019-02-02T04:41:39.714Z,76.40
2019-02-02T04:46:41.026Z,76.30
2019-02-02T04:51:42.337Z,77.30
2019-02-02T04:56:43.671Z,76.40
2019-02-02T05:01:45.093Z,76.30
2019-02-02T05:06:46.411Z,76.60
2019-02-02T05:11:47.763Z,75.10
2019-02-02T05:16:49.068Z,76.60
2019-02-02T05:21:50.384Z,77.80
2019-02-02T05:26:51.721Z,76.50
2019-02-02T05:31:53.022Z,76.50
2019-02-02T05:36:54.336Z,76.40
2019-02-02T05:41:55.615Z,76.50
2019-02-02T05:46:56.966Z,76.20
2019-02-02T05:51:58.280Z,76.20
2019-02-02T05:56:59.562Z,76.60
2019-02-02T06:02:00.931Z,77.40
2019-02-02T06:07:02.251Z,77.60
2019-02-02T06:12:03.559Z,77.90
2019-02-02T06:17:04.890Z,78.00
2019-02-02T06:22:06.287Z,77.80
2019-02-02T06:27:07.620Z,78.00
2019-02-02T06:32:12.057Z,77.90
2019-02-02T06:37:11.999Z,79.70
2019-02-02T06:42:13.310Z,80.20
2019-02-02T06:47:14.628Z,80.20
2019-02-02T06:52:15.975Z,80.60
2019-02-02T06:57:17.282Z,80.60
2019-02-02T07:02:18.626Z,80.50
2019-02-02T07:07:19.936Z,81.30
2019-02-02T07:12:21.432Z,80.30
2019-02-02T07:17:22.731Z,80.60
2019-02-02T07:22:24.056Z,81.00
2019-02-02T07:27:30.062Z,80.60
2019-02-02T07:32:31.371Z,81.70
2019-02-02T07:37:32.668Z,80.90
2019-02-02T07:42:33.990Z,81.00
2019-02-02T07:47:35.315Z,80.50
2019-02-02T07:52:36.611Z,80.20
2019-02-02T07:57:37.910Z,80.20
2019-02-02T08:02:39.238Z,79.90
2019-02-02T08:07:40.506Z,79.30
2019-02-02T08:12:41.840Z,79.50
2019-02-02T08:17:43.160Z,78.90
2019-02-02T08:22:44.479Z,78.40
2019-02-02T08:27:45.799Z,78.30
2019-02-02T08:32:47.160Z,77.50
2019-02-02T08:37:48.486Z,77.30
2019-02-02T08:42:49.808Z,76.60
2019-02-02T08:47:51.072Z,76.40
2019-02-02T08:52:52.391Z,76.00
2019-02-02T08:57:53.731Z,75.50
2019-02-02T09:02:55.118Z,75.90
2019-02-02T09:07:56.477Z,77.40
2019-02-02T09:12:57.797Z,77.60
2019-02-02T09:17:59.171Z,75.90
2019-02-02T09:23:06.540Z,76.20
2019-02-02T09:28:03.567Z,77.40
2019-02-02T09:33:04.953Z,76.60
2019-02-02T09:38:06.269Z,76.40
2019-02-02T09:43:07.635Z,76.10
2019-02-02T09:48:08.933Z,76.10
2019-02-02T09:53:10.266Z,76.10
2019-02-02T09:58:11.574Z,75.80
2019-02-02T10:03:13.000Z,75.80
2019-02-02T10:08:14.334Z,75.90
2019-02-02T10:13:15.628Z,76.20
2019-02-02T10:18:17.112Z,76.80
2019-02-02T10:23:18.451Z,76.80
2019-02-02T10:28:19.803Z,76.60
2019-02-02T10:33:21.086Z,76.20
2019-02-02T10:38:22.468Z,76.20
2019-02-02T10:43:23.847Z,76.70
2019-02-02T10:48:25.163Z,76.50
2019-02-02T10:53:26.496Z,76.60
2019-02-02T10:58:27.814Z,76.80
2019-02-02T11:03:29.161Z,77.60
2019-02-02T11:08:30.505Z,77.70
2019-02-02T11:13:31.785Z,77.50
2019-02-02T11:18:33.220Z,77.10
2019-02-02T11:23:34.599Z,76.90
2019-02-02T11:28:35.953Z,76.90
2019-02-02T11:33:37.223Z,76.90
2019-02-02T11:38:38.542Z,77.60
2019-02-02T11:43:39.910Z,78.50
2019-02-02T11:48:41.183Z,78.70
2019-02-02T11:53:42.531Z,79.00
2019-02-02T11:58:43.806Z,80.00
2019-02-02T12:03:45.118Z,80.90
2019-02-02T12:08:49.267Z,80.50
2019-02-02T12:13:49.609Z,80.20
2019-02-02T12:18:50.982Z,81.50
2019-02-02T12:23:52.258Z,81.30
2019-02-02T12:28:53.608Z,81.30
2019-02-02T12:33:54.936Z,81.20
2019-02-02T12:38:56.339Z,81.70
2019-02-02T12:43:57.669Z,82.00
2019-02-02T12:48:58.978Z,83.10
2019-02-02T12:54:00.285Z,83.40
2019-02-02T12:59:01.645Z,83.50
2019-02-02T13:04:05.564Z,82.90
2019-02-02T13:09:06.982Z,82.40
2019-02-02T13:14:08.299Z,82.30
2019-02-02T13:19:09.572Z,81.80
2019-02-02T13:24:11.022Z,82.90
2019-02-02T13:29:12.384Z,81.70
2019-02-02T13:34:13.715Z,81.50
2019-02-02T13:39:14.988Z,82.60
2019-02-02T13:44:16.302Z,81.70
2019-02-02T13:49:17.615Z,81.80
2019-02-02T13:54:18.931Z,82.20
2019-02-02T13:59:20.236Z,82.00
2019-02-02T14:04:21.555Z,84.50
2019-02-02T14:09:22.864Z,85.30
2019-02-02T14:14:24.195Z,83.20
2019-02-02T14:19:25.557Z,83.40
2019-02-02T14:24:26.899Z,83.10
2019-02-02T14:29:28.227Z,85.40
2019-02-02T14:34:40.006Z,86.70
2019-02-02T14:39:32.627Z,85.90
2019-02-02T14:44:34.023Z,87.00
2019-02-02T14:49:35.353Z,86.20
2019-02-02T14:54:36.679Z,86.60
2019-02-02T14:59:37.987Z,85.40
2019-02-02T15:04:39.279Z,88.10
2019-02-02T15:09:40.613Z,85.70
2019-02-02T15:14:41.916Z,89.30
2019-02-02T15:19:43.228Z,88.30
2019-02-02T15:24:44.547Z,87.50
2019-02-02T15:29:45.888Z,86.80
2019-02-02T15:34:47.208Z,86.70
2019-02-02T15:39:48.528Z,90.60
2019-02-02T15:44:49.810Z,90.00
2019-02-02T15:49:51.123Z,90.40
2019-02-02T15:54:52.404Z,88.90
2019-02-02T15:59:53.735Z,90.50
2019-02-02T16:04:55.039Z,90.20
2019-02-02T16:09:56.486Z,91.50
2019-02-02T16:14:57.917Z,91.90
2019-02-02T16:19:59.238Z,91.30
2019-02-02T16:25:00.585Z,90.50
2019-02-02T16:30:03.920Z,90.30
2019-02-02T16:35:08.000Z,90.30
2019-02-02T16:40:12.824Z,90.90
2019-02-02T16:45:19.311Z,90.70
2019-02-02T16:50:20.831Z,91.00
2019-02-02T16:55:24.154Z,90.90
2019-02-02T17:00:32.142Z,91.20
2019-02-02T17:05:33.474Z,90.60
2019-02-02T17:10:35.586Z,92.70
2019-02-02T17:15:36.917Z,91.20
2019-02-02T17:20:40.144Z,90.70
2019-02-02T17:25:41.531Z,91.80
2019-02-02T17:30:42.856Z,91.50
2019-02-02T17:35:44.252Z,92.80
2019-02-02T17:40:45.547Z,92.60
2019-02-02T17:45:46.850Z,91.50
2019-02-02T17:50:48.395Z,91.00
2019-02-02T17:55:49.730Z,92.20
2019-02-02T18:00:52.942Z,94.30
2019-02-02T18:05:54.275Z,92.40
2019-02-02T18:10:55.592Z,91.60
2019-02-02T18:15:56.900Z,92.20
2019-02-02T18:20:58.232Z,93.50
2019-02-02T18:25:59.567Z,94.10
2019-02-02T18:31:00.884Z,93.70
2019-02-02T18:36:02.178Z,92.40
2019-02-02T18:41:03.512Z,91.20
2019-02-02T18:46:04.962Z,91.70
2019-02-02T18:51:06.299Z,93.10
2019-02-02T18:56:07.615Z,93.20
2019-02-02T19:01:08.920Z,93.30
2019-02-02T19:06:10.239Z,92.70
2019-02-02T19:11:11.556Z,92.70
2019-02-02T19:16:13.742Z,92.60
2019-02-02T19:21:15.045Z,92.30
2019-02-02T19:26:16.389Z,93.20
2019-02-02T19:31:17.752Z,95.80
2019-02-02T19:36:19.043Z,95.00
2019-02-02T19:41:20.365Z,93.00
2019-02-02T19:46:21.680Z,93.80
2019-02-02T19:51:23.169Z,92.60
2019-02-02T19:56:24.577Z,92.80
2019-02-02T20:01:25.855Z,92.80
2019-02-02T20:06:27.152Z,93.70
2019-02-02T21:04:01.592Z,97.80
2019-02-02T21:09:04.532Z,98.10
2019-02-02T21:14:05.809Z,97.90
2019-02-02T21:19:07.100Z,95.40
2019-02-02T21:24:08.383Z,94.20
2019-02-02T21:29:09.660Z,94.30
2019-02-02T21:34:10.945Z,95.50
2019-02-02T21:39:12.317Z,95.10
2019-02-02T21:44:13.643Z,97.70
2019-02-02T21:49:15.178Z,94.60
2019-02-02T21:54:16.495Z,94.20
2019-02-02T21:59:17.797Z,93.40
2019-02-02T22:04:19.067Z,93.60
2019-02-02T22:09:20.379Z,93.80
2019-02-02T22:14:22.227Z,94.30
2019-02-02T22:19:23.512Z,93.70
2019-02-02T22:24:24.833Z,94.30
2019-02-02T22:29:26.159Z,93.40
2019-02-02T22:34:27.551Z,94.40
2019-02-02T22:39:28.766Z,96.20
2019-02-02T22:44:30.117Z,95.50
2019-02-02T22:49:31.456Z,94.00
2019-02-02T22:54:32.899Z,93.70
2019-02-02T22:59:34.198Z,93.40
2019-02-02T23:04:39.320Z,94.00
2019-02-02T23:10:10.197Z,94.00
2019-02-02T23:15:27.235Z,93.50
2019-02-02T23:20:28.503Z,93.20
2019-02-02T23:25:29.823Z,93.90
2019-02-02T23:30:31.384Z,94.00
2019-02-02T23:35:32.676Z,94.60
2019-02-02T23:40:34.028Z,94.20
2019-02-02T23:45:35.351Z,94.30
2019-02-02T23:50:36.671Z,95.10
2019-02-02T23:55:38.225Z,95.00
